Time;durP1;ratioP1;P1;durP2;ratioP2;P2;SDS_P1;SDS_P2;PMS_P1;PMS_P2;Temp;Humidity;BMP_temperature;BMP_pressure;BME280_temperature;BME280_humidity;BME280_pressure;Samples;Min_cycle;Max_cycle;Signal;HPM_P1;HPM_P2
2023/09/24 00:00:10;;;;;;;4.32;3.28;;;;;;;7.68;100.00;99136.97;6107794;19;20352;-72
2023/09/24 00:02:11;;;;;;;5.43;2.80;;;;;;;7.69;100.00;99133.06;6109386;19;20359;-74
2023/09/24 00:04:11;;;;;;;4.32;2.78;;;;;;;7.70;100.00;99134.69;6107168;19;20006;-72
2023/09/24 00:06:11;;;;;;;4.00;2.72;;;;;;;7.74;100.00;99130.91;6109457;19;20069;-72
2023/09/24 00:08:12;;;;;;;3.70;2.60;;;;;;;7.77;100.00;99135.72;6109008;19;20066;-72
2023/09/24 00:10:12;;;;;;;4.55;2.25;;;;;;;7.76;100.00;99136.88;6106368;19;20431;-72
2023/09/24 00:12:13;;;;;;;4.75;2.92;;;;;;;7.82;100.00;99140.22;6108503;19;20186;-72
2023/09/24 00:14:14;;;;;;;3.35;2.03;;;;;;;7.84;100.00;99141.47;6108762;19;20003;-72
2023/09/24 00:16:14;;;;;;;3.60;2.15;;;;;;;7.86;100.00;99150.22;6109464;19;20014;-72
2023/09/24 00:18:17;;;;;;;5.80;2.10;;;;;;;7.89;100.00;99144.00;6108477;19;20022;-72
2023/09/24 00:20:18;;;;;;;4.47;2.40;;;;;;;7.95;100.00;99150.09;6107651;19;20006;-72
2023/09/24 00:22:19;;;;;;;3.78;2.35;;;;;;;7.97;100.00;99153.31;6109043;19;20007;-72
2023/09/24 00:24:20;;;;;;;5.10;2.22;;;;;;;7.97;100.00;99158.81;6107302;19;20006;-72
2023/09/24 00:26:21;;;;;;;2.03;1.83;;;;;;;7.98;100.00;99160.41;6109134;19;20009;-72
2023/09/24 00:28:22;;;;;;;5.38;2.20;;;;;;;8.00;100.00;99162.81;6108930;19;20498;-72
2023/09/24 00:30:23;;;;;;;5.70;2.63;;;;;;;7.98;100.00;99157.66;6107747;19;20019;-72
2023/09/24 00:32:23;;;;;;;4.03;2.40;;;;;;;8.00;100.00;99160.06;6108507;19;20002;-72
2023/09/24 00:34:24;;;;;;;4.80;2.40;;;;;;;8.02;100.00;99163.28;6106714;19;20094;-72
2023/09/24 00:36:24;;;;;;;3.90;2.30;;;;;;;8.05;100.00;99159.84;6107594;19;20009;-72
2023/09/24 00:38:24;;;;;;;4.00;2.53;;;;;;;8.11;100.00;99166.75;6106839;19;20522;-72
2023/09/24 00:40:25;;;;;;;4.38;2.22;;;;;;;8.15;100.00;99170.41;6108410;19;20038;-72
2023/09/24 00:42:28;;;;;;;3.20;2.33;;;;;;;8.17;100.00;99166.16;6107750;19;20007;-72
2023/09/24 00:44:28;;;;;;;4.60;2.08;;;;;;;8.16;100.00;99169.25;6107713;19;20038;-72
2023/09/24 00:46:30;;;;;;;3.03;2.30;;;;;;;8.10;100.00;99162.34;6106700;19;20490;-72
2023/09/24 00:48:32;;;;;;;5.03;2.37;;;;;;;8.05;100.00;99165.38;6107469;19;20013;-72
2023/09/24 00:50:32;;;;;;;3.83;2.30;;;;;;;7.99;100.00;99167.53;6106700;19;20259;-72
2023/09/24 00:52:33;;;;;;;6.03;2.75;;;;;;;7.98;100.00;99176.16;6107841;19;20809;-72
2023/09/24 00:54:33;;;;;;;4.45;2.72;;;;;;;7.96;100.00;99189.47;6107568;19;20269;-72
2023/09/24 00:56:34;;;;;;;6.03;3.38;;;;;;;7.89;100.00;99188.09;6108356;19;20078;-72
2023/09/24 00:58:35;;;;;;;4.68;2.95;;;;;;;7.89;100.00;99195.56;6106582;19;20014;-72
2023/09/24 01:00:37;;;;;;;4.97;3.20;;;;;;;7.84;100.00;99179.22;6106152;19;20010;-72
2023/09/24 01:02:39;;;;;;;3.20;2.75;;;;;;;7.82;100.00;99187.84;6108948;19;20003;-72
2023/09/24 01:04:39;;;;;;;5.95;3.05;;;;;;;7.88;100.00;99189.22;6105561;19;20012;-72
2023/09/24 01:06:40;;;;;;;4.47;3.22;;;;;;;7.93;100.00;99192.91;6107297;19;20517;-72
2023/09/24 01:08:42;;;;;;;7.10;2.70;;;;;;;8.04;100.00;99191.31;6106497;19;20007;-72
2023/09/24 01:10:47;;;;;;;7.13;2.88;;;;;;;8.10;100.00;99187.97;6106777;19;20010;-72
2023/09/24 01:12:55;;;;;;;3.67;2.92;;;;;;;8.11;100.00;99189.59;6107030;19;20013;-72
2023/09/24 01:14:57;;;;;;;7.03;3.60;;;;;;;8.08;100.00;99197.75;6107889;19;20478;-71
2023/09/24 01:16:57;;;;;;;5.07;3.42;;;;;;;7.96;100.00;99197.75;6107152;19;20018;-72
2023/09/24 01:18:58;;;;;;;5.57;3.45;;;;;;;7.77;100.00;99206.53;6106704;19;20003;-71
2023/09/24 01:20:58;;;;;;;7.43;3.67;;;;;;;7.62;100.00;99208.03;6106466;19;20082;-72
2023/09/24 01:23:02;;;;;;;6.57;3.08;;;;;;;7.52;100.00;99209.22;6106234;19;20039;-72
2023/09/24 01:25:03;;;;;;;6.38;3.17;;;;;;;7.49;100.00;99212.69;6107115;19;20011;-72
2023/09/24 01:27:04;;;;;;;5.50;3.22;;;;;;;7.47;100.00;99219.69;6105943;19;20007;-72
2023/09/24 01:29:07;;;;;;;4.30;3.03;;;;;;;7.49;100.00;99214.63;6105353;19;20023;-72
2023/09/24 01:31:08;;;;;;;4.20;3.03;;;;;;;7.45;100.00;99224.72;6107863;19;20256;-72
2023/09/24 01:33:08;;;;;;;4.93;3.20;;;;;;;7.41;100.00;99216.31;6107574;19;20011;-72
2023/09/24 01:35:09;;;;;;;5.03;3.08;;;;;;;7.45;100.00;99222.78;6107175;19;20002;-72
2023/09/24 01:37:09;;;;;;;4.65;3.15;;;;;;;7.45;100.00;99221.97;6106768;19;20517;-71
2023/09/24 01:39:09;;;;;;;4.32;2.92;;;;;;;7.31;100.00;99216.75;6104470;19;20006;-72
2023/09/24 01:41:10;;;;;;;7.18;3.25;;;;;;;7.16;100.00;99223.66;6107006;19;20014;-72
2023/09/24 01:43:14;;;;;;;5.68;3.40;;;;;;;7.06;100.00;99221.34;6107564;19;20010;-72
2023/09/24 01:45:16;;;;;;;5.53;3.08;;;;;;;6.96;100.00;99232.75;6107416;19;20011;-71
2023/09/24 01:47:16;;;;;;;5.03;2.97;;;;;;;6.89;100.00;99226.97;6111266;19;20019;-72
2023/09/24 01:49:17;;;;;;;4.13;3.20;;;;;;;6.84;100.00;99235.44;6111268;19;20462;-72
2023/09/24 01:51:20;;;;;;;4.65;3.10;;;;;;;6.76;100.00;99232.41;6111748;19;20010;-72
2023/09/24 01:53:20;;;;;;;4.93;3.30;;;;;;;6.74;100.00;99231.13;6112257;19;20413;-72
2023/09/24 01:55:21;;;;;;;4.68;3.17;;;;;;;6.71;100.00;99231.81;6111927;19;20054;-72
2023/09/24 01:57:22;;;;;;;4.25;2.90;;;;;;;6.68;100.00;99230.50;6112289;19;20738;-72
2023/09/24 01:59:22;;;;;;;5.85;3.13;;;;;;;6.66;100.00;99229.25;6111371;19;20021;-71
2023/09/24 02:01:22;;;;;;;5.63;3.38;;;;;;;6.64;100.00;99228.78;6112972;19;20003;-72
2023/09/24 02:03:23;;;;;;;4.97;3.30;;;;;;;6.64;100.00;99231.53;6109799;19;20382;-72
2023/09/24 02:05:23;;;;;;;3.80;2.90;;;;;;;6.64;100.00;99226.84;6111453;19;20317;-72
2023/09/24 02:07:24;;;;;;;7.70;3.20;;;;;;;6.64;100.00;99234.28;6112532;19;20025;-71
2023/09/24 02:09:24;;;;;;;4.13;3.17;;;;;;;6.64;100.00;99235.09;6110678;19;20002;-72
2023/09/24 02:11:25;;;;;;;4.82;2.90;;;;;;;6.67;100.00;99237.16;6112602;19;20025;-71
2023/09/24 02:13:25;;;;;;;4.57;2.63;;;;;;;6.69;100.00;99231.31;6112538;19;21006;-72
2023/09/24 02:15:26;;;;;;;4.38;2.70;;;;;;;6.69;100.00;99251.38;6111603;19;20007;-71
2023/09/24 02:17:26;;;;;;;4.32;2.60;;;;;;;6.70;100.00;99250.25;6112321;19;20066;-71
2023/09/24 02:19:26;;;;;;;6.60;3.40;;;;;;;6.71;100.00;99246.38;6110622;19;20017;-72
2023/09/24 02:21:29;;;;;;;5.50;3.20;;;;;;;6.72;100.00;99253.47;6110848;19;20090;-72
2023/09/24 02:23:30;;;;;;;4.45;2.92;;;;;;;6.67;100.00;99253.66;6111941;19;20033;-71
2023/09/24 02:25:37;;;;;;;6.03;3.00;;;;;;;6.64;100.00;99248.03;6111510;19;20007;-72
2023/09/24 02:27:38;;;;;;;7.22;3.67;;;;;;;6.60;100.00;99250.63;6110889;19;20007;-71
2023/09/24 02:29:38;;;;;;;4.00;3.05;;;;;;;6.58;100.00;99255.66;6110766;19;20575;-72
2023/09/24 02:31:38;;;;;;;4.05;2.78;;;;;;;6.65;100.00;99255.13;6111152;19;20007;-71
2023/09/24 02:33:39;;;;;;;5.55;3.03;;;;;;;6.71;100.00;99251.06;6111139;19;20007;-72
2023/09/24 02:35:39;;;;;;;7.00;3.47;;;;;;;6.76;100.00;99253.59;6110711;19;20328;-72
2023/09/24 02:37:44;;;;;;;4.35;3.28;;;;;;;6.86;100.00;99260.66;6109124;19;20010;-72
2023/09/24 02:39:44;;;;;;;5.18;3.45;;;;;;;6.93;100.00;99269.16;6109915;19;20014;-71
2023/09/24 02:41:45;;;;;;;5.72;2.83;;;;;;;6.99;100.00;99265.91;6110372;19;20025;-71
2023/09/24 02:43:45;;;;;;;4.97;3.17;;;;;;;7.01;100.00;99263.59;6111154;19;20533;-71
2023/09/24 02:45:46;;;;;;;4.38;2.97;;;;;;;7.04;100.00;99268.47;6111039;19;20008;-72
2023/09/24 02:47:49;;;;;;;3.90;3.08;;;;;;;7.07;100.00;99274.44;6110264;19;20035;-72
2023/09/24 02:49:50;;;;;;;4.05;2.92;;;;;;;7.05;100.00;99263.75;6100241;19;20003;-72
2023/09/24 02:51:51;;;;;;;4.82;2.80;;;;;;;7.03;100.00;99261.34;6109877;19;20007;-72
2023/09/24 02:53:51;;;;;;;4.20;3.03;;;;;;;7.07;100.00;99271.66;6110049;19;20533;-72
2023/09/24 02:55:51;;;;;;;5.07;3.38;;;;;;;7.06;100.00;99273.63;6110811;19;20022;-71
2023/09/24 02:57:52;;;;;;;4.50;2.85;;;;;;;7.02;100.00;99278.97;6108979;19;20002;-72
2023/09/24 02:59:53;;;;;;;4.55;2.80;;;;;;;7.03;100.00;99274.28;6108898;19;20003;-72
2023/09/24 03:01:53;;;;;;;5.10;3.63;;;;;;;7.07;100.00;99282.69;6110281;19;20017;-72
2023/09/24 03:03:54;;;;;;;4.93;2.75;;;;;;;7.10;100.00;99284.75;6107454;19;20005;-72
2023/09/24 03:05:54;;;;;;;4.45;2.90;;;;;;;7.09;100.00;99283.94;6110207;19;20038;-72
2023/09/24 03:07:57;;;;;;;5.80;3.33;;;;;;;7.10;100.00;99284.75;6110375;19;20022;-72
2023/09/24 03:09:57;;;;;;;;;;;;;;;7.16;100.00;99291.66;6107857;19;20090;-72
2023/09/24 03:11:58;;;;;;;5.25;3.17;;;;;;;7.17;100.00;99283.06;6109865;19;19907;-72
2023/09/24 03:13:58;;;;;;;6.47;3.03;;;;;;;7.24;100.00;99283.34;6110692;19;20565;-72
2023/09/24 03:15:58;;;;;;;6.10;3.67;;;;;;;7.30;100.00;99292.22;6109955;19;20002;-72
2023/09/24 03:18:02;;;;;;;3.30;2.83;;;;;;;7.31;100.00;99299.31;6108888;19;20034;-72
2023/09/24 03:20:14;;;;;;;4.35;3.05;;;;;;;7.29;100.00;99288.66;6107983;19;20006;-72
2023/09/24 03:22:14;;;;;;;4.30;3.03;;;;;;;7.25;100.00;99300.66;6109666;19;20035;-72
2023/09/24 03:24:15;;;;;;;4.70;3.10;;;;;;;7.21;100.00;99300.53;6110699;19;21074;-72
2023/09/24 03:26:16;;;;;;;5.05;3.15;;;;;;;7.21;100.00;99308.00;6110177;19;20477;-72
2023/09/24 03:28:16;;;;;;;7.35;4.18;;;;;;;7.12;100.00;99305.31;6109958;19;20487;-72
2023/09/24 03:30:20;;;;;;;5.38;3.40;;;;;;;7.06;100.00;99303.88;6108785;19;20443;-72
2023/09/24 03:32:20;;;;;;;5.20;3.40;;;;;;;7.03;100.00;99307.28;6109366;19;20331;-72
2023/09/24 03:34:20;;;;;;;5.68;3.30;;;;;;;6.98;100.00;99310.25;6109824;19;20395;-72
2023/09/24 03:36:22;;;;;;;7.68;3.63;;;;;;;6.96;100.00;99298.78;6110026;19;20026;-72
2023/09/24 03:38:23;;;;;;;3.95;2.97;;;;;;;6.91;100.00;99294.28;6109491;19;20077;-72
2023/09/24 03:40:25;;;;;;;5.78;3.72;;;;;;;6.85;100.00;99286.53;6107688;19;20014;-72
2023/09/24 03:42:25;;;;;;;;;;;;;;;6.82;100.00;99289.97;6111219;19;20106;-72
2023/09/24 03:44:26;;;;;;;5.32;3.92;;;;;;;6.76;100.00;99294.84;6109116;19;20423;-72
2023/09/24 03:46:27;;;;;;;5.22;3.72;;;;;;;6.71;100.00;99304.13;6109384;19;20031;-72
2023/09/24 03:48:27;;;;;;;5.05;3.40;;;;;;;6.66;100.00;99307.03;6108654;19;20011;-72
2023/09/24 03:50:28;;;;;;;4.65;3.03;;;;;;;6.61;100.00;99303.66;6103111;19;20026;-72
2023/09/24 03:52:30;;;;;;;8.15;3.85;;;;;;;6.56;100.00;99303.88;6102747;19;20421;-72
2023/09/24 03:54:31;;;;;;;7.95;4.18;;;;;;;6.59;100.00;99315.00;6103953;19;20074;-72
2023/09/24 03:56:32;;;;;;;5.40;3.22;;;;;;;6.69;100.00;99316.56;6102276;19;20569;-72
2023/09/24 03:58:32;;;;;;;4.93;2.75;;;;;;;6.75;100.00;99316.03;6101630;19;20006;-72
2023/09/24 04:00:33;;;;;;;5.05;3.20;;;;;;;6.73;100.00;99321.09;6101904;19;20002;-72
2023/09/24 04:02:35;;;;;;;6.68;3.13;;;;;;;6.70;100.00;99324.50;6101451;19;20094;-72
2023/09/24 04:04:36;;;;;;;4.28;3.15;;;;;;;6.61;100.00;99331.16;6100619;19;20454;-72
2023/09/24 04:06:38;;;;;;;7.25;3.40;;;;;;;6.55;100.00;99338.00;6102170;19;20450;-72
2023/09/24 04:08:39;;;;;;;3.65;3.05;;;;;;;6.47;100.00;99337.72;6099650;19;20039;-72
2023/09/24 04:10:39;;;;;;;6.68;2.95;;;;;;;6.44;100.00;99340.28;6100537;19;20011;-72
2023/09/24 04:12:41;;;;;;;4.70;2.70;;;;;;;6.49;100.00;99334.63;6102131;19;20466;-72
2023/09/24 04:14:42;;;;;;;4.93;3.15;;;;;;;6.42;100.00;99342.56;6101676;19;20030;-72
2023/09/24 04:16:43;;;;;;;4.85;3.22;;;;;;;6.41;100.00;99347.28;6101944;19;20017;-72
2023/09/24 04:18:43;;;;;;;5.90;2.85;;;;;;;6.37;100.00;99342.75;6100702;19;20474;-72
2023/09/24 04:20:44;;;;;;;4.90;3.15;;;;;;;6.25;100.00;99346.19;6099951;19;20060;-72
2023/09/24 04:22:44;;;;;;;4.28;3.30;;;;;;;6.19;100.00;99348.31;6102389;19;20406;-72
2023/09/24 04:24:44;;;;;;;8.70;3.45;;;;;;;6.15;100.00;99347.34;6100933;19;20003;-72
2023/09/24 04:26:46;;;;;;;5.68;3.03;;;;;;;6.14;100.00;99355.94;6101987;19;20014;-72
2023/09/24 04:28:46;;;;;;;8.40;3.00;;;;;;;6.16;100.00;99357.22;6101527;19;20006;-72
2023/09/24 04:30:47;;;;;;;4.78;2.78;;;;;;;6.16;100.00;99354.47;6100073;19;20009;-72
2023/09/24 04:32:51;;;;;;;5.85;3.22;;;;;;;6.09;100.00;99361.59;6101342;19;20014;-72
2023/09/24 04:34:55;;;;;;;5.57;3.10;;;;;;;6.03;100.00;99368.38;6101275;19;20016;-73
2023/09/24 04:36:55;;;;;;;6.95;3.03;;;;;;;6.02;100.00;99380.50;6100921;19;20394;-73
2023/09/24 04:38:56;;;;;;;5.07;3.70;;;;;;;5.98;100.00;99385.06;6101629;19;20036;-72
2023/09/24 04:40:57;;;;;;;4.28;3.15;;;;;;;6.02;100.00;99388.75;6100255;19;20033;-72
2023/09/24 04:42:57;;;;;;;8.25;3.55;;;;;;;6.10;100.00;99383.25;6100623;19;20015;-72
2023/09/24 04:44:57;;;;;;;9.30;3.47;;;;;;;6.11;100.00;99384.03;6100292;19;20082;-72
2023/09/24 04:46:58;;;;;;;6.65;3.15;;;;;;;6.12;100.00;99400.22;6100893;19;20747;-71
2023/09/24 04:48:58;;;;;;;4.20;3.30;;;;;;;6.20;100.00;99391.13;6099883;19;20545;-72
2023/09/24 04:50:59;;;;;;;4.15;2.88;;;;;;;6.29;100.00;99390.31;6104182;19;20345;-72
2023/09/24 04:52:59;;;;;;;8.02;3.00;;;;;;;6.38;100.00;99396.59;6108052;19;20011;-71
2023/09/24 04:55:01;;;;;;;5.88;3.05;;;;;;;6.39;100.00;99399.03;6107602;19;20463;-73
2023/09/24 04:57:01;;;;;;;5.43;3.42;;;;;;;6.31;100.00;99397.09;6107034;19;20015;-72
2023/09/24 04:59:03;;;;;;;5.00;3.00;;;;;;;6.32;100.00;99406.16;6107531;19;20394;-72
2023/09/24 05:01:06;;;;;;;5.25;3.00;;;;;;;6.30;100.00;99409.25;6106527;19;20014;-72
2023/09/24 05:03:06;;;;;;;5.47;3.13;;;;;;;6.34;100.00;99415.69;6107211;19;20015;-72
2023/09/24 05:05:07;;;;;;;5.63;2.97;;;;;;;6.32;100.00;99406.16;6105224;19;20047;-72
2023/09/24 05:07:08;;;;;;;5.47;3.00;;;;;;;6.31;100.00;99424.59;6107900;19;20263;-72
2023/09/24 05:09:08;;;;;;;7.15;3.17;;;;;;;6.27;100.00;99425.56;6105864;19;20011;-72
2023/09/24 05:11:12;;;;;;;4.72;3.63;;;;;;;6.19;100.00;99430.72;6107508;19;20018;-71
2023/09/24 05:13:13;;;;;;;6.15;2.88;;;;;;;6.11;100.00;99422.50;6107567;19;20105;-72
2023/09/24 05:15:13;;;;;;;6.80;3.28;;;;;;;6.09;100.00;99433.03;6106222;19;20014;-72
2023/09/24 05:17:13;;;;;;;5.28;3.55;;;;;;;6.04;100.00;99430.44;6106726;19;20014;-71
2023/09/24 05:19:14;;;;;;;6.60;3.42;;;;;;;6.01;100.00;99440.13;6105572;19;20483;-74
2023/09/24 05:21:15;;;;;;;5.25;3.00;;;;;;;6.08;100.00;99436.91;6110793;19;20030;-72
2023/09/24 05:23:15;;;;;;;8.43;3.20;;;;;;;6.10;100.00;99443.69;6113469;19;20010;-72
2023/09/24 05:25:19;;;;;;;5.22;3.00;;;;;;;6.03;100.00;99448.84;6112702;19;20027;-72
2023/09/24 05:27:19;;;;;;;6.53;3.40;;;;;;;5.95;100.00;99449.66;6113371;19;20462;-72
2023/09/24 05:29:19;;;;;;;8.90;3.60;;;;;;;5.87;100.00;99451.25;6111217;19;20021;-72
2023/09/24 05:31:21;;;;;;;8.25;3.30;;;;;;;5.80;100.00;99452.88;6113642;19;20002;-72
2023/09/24 05:33:22;;;;;;;5.07;3.58;;;;;;;5.79;100.00;99464.97;6113025;19;20053;-72
2023/09/24 05:35:23;;;;;;;5.95;3.63;;;;;;;5.78;100.00;99463.38;6111779;19;20526;-71
2023/09/24 05:37:23;;;;;;;5.43;3.35;;;;;;;5.86;100.00;99468.06;6113369;19;20003;-72
2023/09/24 05:39:23;;;;;;;6.78;3.50;;;;;;;5.93;100.00;99468.41;6110587;19;20066;-72
2023/09/24 05:41:24;;;;;;;12.93;4.13;;;;;;;6.00;100.00;99478.94;6112969;19;20349;-71
2023/09/24 05:43:24;;;;;;;9.00;3.53;;;;;;;6.03;100.00;99478.28;6112095;19;20682;-71
2023/09/24 05:45:25;;;;;;;7.82;3.35;;;;;;;6.02;100.00;99482.97;6112721;19;20011;-71
2023/09/24 05:47:26;;;;;;;8.45;3.65;;;;;;;6.14;100.00;99485.88;6111992;19;20418;-73
2023/09/24 05:49:27;;;;;;;11.52;4.18;;;;;;;6.15;100.00;99500.44;6110412;19;20002;-73
2023/09/24 05:51:27;;;;;;;6.40;4.38;;;;;;;6.16;100.00;99504.78;6113153;19;20391;-72
2023/09/24 05:53:27;;;;;;;7.60;3.85;;;;;;;6.20;100.00;99498.31;6112408;19;20009;-72
2023/09/24 05:55:28;;;;;;;8.77;3.67;;;;;;;6.23;100.00;99496.06;6109953;19;19999;-72
2023/09/24 05:57:28;;;;;;;11.35;4.25;;;;;;;6.26;100.00;99493.47;6112878;19;20006;-72
2023/09/24 05:59:29;;;;;;;6.10;3.90;;;;;;;6.34;100.00;99503.63;6109816;19;20074;-71
2023/09/24 06:01:29;;;;;;;12.27;3.83;;;;;;;6.38;100.00;99501.88;6111934;19;20334;-72
2023/09/24 06:03:29;;;;;;;8.85;4.13;;;;;;;6.45;100.00;99506.84;6109522;19;20538;-72
2023/09/24 06:05:30;;;;;;;8.35;3.83;;;;;;;6.56;100.00;99507.34;6112492;19;20042;-71
2023/09/24 06:07:31;;;;;;;16.90;6.22;;;;;;;6.63;100.00;99494.72;6112324;19;20333;-71
2023/09/24 06:09:32;;;;;;;12.23;4.18;;;;;;;6.71;100.00;99507.63;6110306;19;20013;-74
2023/09/24 06:11:33;;;;;;;13.97;5.40;;;;;;;6.76;100.00;99509.38;6111878;19;20011;-72
2023/09/24 06:13:34;;;;;;;12.82;5.15;;;;;;;6.85;100.00;99515.66;6111681;19;20037;-72
2023/09/24 06:15:34;;;;;;;11.10;5.10;;;;;;;6.93;100.00;99514.03;6111989;19;20003;-72
2023/09/24 06:17:34;;;;;;;7.00;5.00;;;;;;;7.04;100.00;99518.84;6112025;19;20325;-72
2023/09/24 06:19:35;;;;;;;10.43;4.10;;;;;;;7.11;100.00;99517.53;6110854;19;20022;-72
2023/09/24 06:21:35;;;;;;;7.47;4.53;;;;;;;7.20;100.00;99521.03;6111282;19;20014;-72
2023/09/24 06:23:37;;;;;;;6.32;4.10;;;;;;;7.29;100.00;99513.56;6111280;19;20466;-72
2023/09/24 06:25:37;;;;;;;5.97;4.05;;;;;;;7.38;100.00;99519.84;6112607;19;20074;-72
2023/09/24 06:27:37;;;;;;;8.93;4.25;;;;;;;7.46;100.00;99524.50;6110802;19;20405;-72
2023/09/24 06:29:38;;;;;;;5.53;3.75;;;;;;;7.57;100.00;99527.69;6109889;19;20125;-72
2023/09/24 06:31:38;;;;;;;7.75;4.47;;;;;;;7.70;100.00;99523.88;6110606;19;20010;-72
2023/09/24 06:33:38;;;;;;;6.40;4.50;;;;;;;7.82;100.00;99532.22;6109806;19;20033;-72
2023/09/24 06:35:39;;;;;;;5.72;3.90;;;;;;;7.94;100.00;99536.19;6111111;19;20006;-72
2023/09/24 06:37:39;;;;;;;7.95;4.00;;;;;;;8.03;100.00;99526.75;6111623;19;20017;-72
2023/09/24 06:39:41;;;;;;;4.50;3.40;;;;;;;8.15;100.00;99537.03;6109880;19;20018;-72
2023/09/24 06:41:42;;;;;;;4.72;3.67;;;;;;;8.26;100.00;99538.22;6111175;19;20030;-72
2023/09/24 06:43:43;;;;;;;7.18;3.72;;;;;;;8.39;100.00;99541.88;6111327;19;20466;-72
2023/09/24 06:45:43;;;;;;;6.28;3.10;;;;;;;8.43;100.00;99540.84;6110792;19;20003;-72
2023/09/24 06:47:43;;;;;;;8.52;3.58;;;;;;;8.53;100.00;99541.63;6110778;19;20023;-72
2023/09/24 06:49:47;;;;;;;8.10;4.10;;;;;;;8.56;100.00;99540.94;6109546;19;20007;-72
2023/09/24 06:51:48;;;;;;;3.75;3.00;;;;;;;8.60;100.00;99534.38;6110164;19;20007;-72
2023/09/24 06:53:50;;;;;;;5.88;3.88;;;;;;;8.66;100.00;99544.06;6111020;19;20022;-72
2023/09/24 06:55:51;;;;;;;5.18;4.15;;;;;;;8.72;100.00;99539.94;6110349;19;20324;-72
2023/09/24 06:57:51;;;;;;;5.60;4.45;;;;;;;8.76;100.00;99548.34;6110529;19;20015;-72
2023/09/24 06:59:52;;;;;;;5.85;3.90;;;;;;;8.78;100.00;99550.78;6108666;19;20102;-72
2023/09/24 07:01:53;;;;;;;6.53;3.80;;;;;;;8.85;100.00;99545.50;6110071;19;20367;-72
2023/09/24 07:03:53;;;;;;;6.10;3.75;;;;;;;8.95;100.00;99558.88;6108009;19;20017;-72
2023/09/24 07:05:54;;;;;;;5.13;4.15;;;;;;;9.04;100.00;99565.13;6111013;19;20014;-72
2023/09/24 07:07:55;;;;;;;5.20;3.75;;;;;;;9.14;100.00;99561.13;6110495;19;20320;-72
2023/09/24 07:09:55;;;;;;;6.32;4.60;;;;;;;9.20;100.00;99573.56;6108541;19;20053;-72
2023/09/24 07:11:56;;;;;;;6.60;4.13;;;;;;;9.27;100.00;99568.28;6110417;19;20030;-72
2023/09/24 07:13:56;;;;;;;7.20;4.13;;;;;;;9.34;100.00;99565.72;6110005;19;20242;-72
2023/09/24 07:15:56;;;;;;;6.55;3.92;;;;;;;9.41;100.00;99565.16;6110360;19;20010;-72
2023/09/24 07:17:57;;;;;;;5.05;3.70;;;;;;;9.49;100.00;99575.31;6109754;19;20383;-72
2023/09/24 07:19:57;;;;;;;8.60;4.22;;;;;;;9.53;100.00;99566.00;6108464;19;20002;-72
2023/09/24 07:21:57;;;;;;;5.00;3.80;;;;;;;9.58;100.00;99563.00;6109134;19;20501;-72
2023/09/24 07:23:58;;;;;;;6.45;3.70;;;;;;;9.61;100.00;99564.28;6110175;19;20009;-72
2023/09/24 07:25:58;;;;;;;4.82;3.60;;;;;;;9.69;100.00;99565.31;6110213;19;20043;-72
2023/09/24 07:27:59;;;;;;;5.80;4.03;;;;;;;9.75;100.00;99573.00;6110027;19;20003;-72
2023/09/24 07:29:59;;;;;;;4.68;3.65;;;;;;;9.78;100.00;99569.56;6109125;19;20015;-72
2023/09/24 07:32:00;;;;;;;5.57;3.33;;;;;;;9.80;100.00;99580.28;6110607;19;20030;-72
2023/09/24 07:34:01;;;;;;;5.38;3.83;;;;;;;9.84;100.00;99584.75;6109194;19;20013;-72
2023/09/24 07:36:01;;;;;;;7.53;4.28;;;;;;;9.87;100.00;99585.22;6109577;19;20010;-72
2023/09/24 07:38:02;;;;;;;5.22;3.95;;;;;;;9.87;100.00;99579.69;6107618;19;20010;-72
2023/09/24 07:40:02;;;;;;;5.03;3.78;;;;;;;9.87;100.00;99582.47;6107659;19;20024;-72
2023/09/24 07:42:03;;;;;;;6.22;3.95;;;;;;;9.92;100.00;99583.00;6109230;19;20010;-72
2023/09/24 07:44:03;;;;;;;5.90;4.00;;;;;;;9.99;100.00;99586.00;6109435;19;20326;-72
2023/09/24 07:46:05;;;;;;;6.60;5.20;;;;;;;10.05;100.00;99583.81;6109008;19;20006;-72
2023/09/24 07:48:08;;;;;;;5.28;3.80;;;;;;;10.08;100.00;99589.44;6109590;19;20007;-72
2023/09/24 07:50:09;;;;;;;6.28;4.05;;;;;;;10.12;100.00;99595.09;6097235;19;20010;-72
2023/09/24 07:52:12;;;;;;;5.72;3.70;;;;;;;10.14;100.00;99595.56;6109564;19;20952;-72
2023/09/24 07:54:13;;;;;;;6.80;4.20;;;;;;;10.20;100.00;99602.47;6108391;19;20070;-72
2023/09/24 07:56:13;;;;;;;6.82;3.90;;;;;;;10.21;100.00;99594.97;6108936;19;20006;-72
2023/09/24 07:58:14;;;;;;;6.55;4.28;;;;;;;10.26;100.00;99595.59;6108141;19;20070;-72
2023/09/24 08:00:14;;;;;;;5.05;3.72;;;;;;;10.27;100.00;99594.44;6107253;19;20006;-72
2023/09/24 08:02:15;;;;;;;4.53;3.85;;;;;;;10.34;100.00;99596.59;6108923;19;20015;-72
2023/09/24 08:04:15;;;;;;;5.55;4.18;;;;;;;10.39;100.00;99593.59;6106854;19;20012;-72
2023/09/24 08:06:16;;;;;;;5.95;4.05;;;;;;;10.45;100.00;99589.44;6109180;19;20442;-72
2023/09/24 08:08:16;;;;;;;6.45;4.28;;;;;;;10.48;100.00;99583.19;6107062;19;20086;-72
2023/09/24 08:10:17;;;;;;;5.65;3.90;;;;;;;10.54;100.00;99579.00;6107023;19;20005;-73
2023/09/24 08:12:18;;;;;;;5.82;4.20;;;;;;;10.61;100.00;99576.47;6108747;19;20312;-72
2023/09/24 08:14:18;;;;;;;8.50;4.88;;;;;;;10.72;100.00;99576.75;6108239;19;20541;-72
2023/09/24 08:16:18;;;;;;;6.07;4.65;;;;;;;10.82;100.00;99580.97;6109198;19;20024;-72
2023/09/24 08:18:19;;;;;;;7.28;4.80;;;;;;;10.89;100.00;99590.28;6108793;19;20006;-72
2023/09/24 08:20:19;;;;;;;5.40;4.53;;;;;;;10.94;100.00;99597.56;6106716;19;20007;-72
2023/09/24 08:22:21;;;;;;;6.00;4.53;;;;;;;10.98;100.00;99593.69;6108039;19;20510;-72
2023/09/24 08:24:21;;;;;;;9.30;6.38;;;;;;;11.08;100.00;99586.84;6107629;19;20030;-72
2023/09/24 08:26:22;;;;;;;9.52;5.80;;;;;;;11.25;100.00;99586.53;6109060;19;20474;-72
2023/09/24 08:28:22;;;;;;;8.18;5.35;;;;;;;11.37;100.00;99593.16;6108519;19;20018;-72
2023/09/24 08:30:23;;;;;;;7.25;4.97;;;;;;;11.48;100.00;99591.44;6106780;19;20066;-72
2023/09/24 08:32:23;;;;;;;7.32;5.10;;;;;;;11.57;100.00;99597.63;6109020;19;20461;-72
2023/09/24 08:34:25;;;;;;;7.35;5.90;;;;;;;11.63;100.00;99593.44;6108875;19;20002;-72
2023/09/24 08:36:26;;;;;;;6.75;4.93;;;;;;;11.68;100.00;99593.16;6108536;19;20029;-72
2023/09/24 08:38:26;;;;;;;6.53;5.15;;;;;;;11.76;100.00;99599.69;6107893;19;20011;-72
2023/09/24 08:40:30;;;;;;;6.05;4.32;;;;;;;11.82;100.00;99601.84;6107634;19;20033;-72
2023/09/24 08:42:31;;;;;;;4.90;3.90;;;;;;;11.89;100.00;99601.22;6108213;19;20006;-72
2023/09/24 08:44:36;;;;;;;6.65;4.03;;;;;;;11.97;100.00;99593.88;6108581;19;20058;-72
2023/09/24 08:46:36;;;;;;;4.60;3.78;;;;;;;12.06;100.00;99600.84;6108884;19;20454;-72
2023/09/24 08:48:39;;;;;;;4.30;3.40;;;;;;;12.21;100.00;99599.19;6107860;19;20010;-72
2023/09/24 08:50:41;;;;;;;5.65;4.00;;;;;;;12.33;100.00;99592.75;6102018;19;20006;-72
2023/09/24 08:52:43;;;;;;;6.18;3.90;;;;;;;12.42;100.00;99593.34;6101310;19;20014;-72
2023/09/24 08:54:45;;;;;;;5.25;3.63;;;;;;;12.57;100.00;99591.66;6101591;19;20554;-72
2023/09/24 08:56:46;;;;;;;4.55;3.60;;;;;;;12.72;100.00;99590.78;6101813;19;20070;-72
2023/09/24 08:58:46;;;;;;;5.18;3.90;;;;;;;12.87;100.00;99595.47;6101025;19;20019;-72
2023/09/24 09:00:47;;;;;;;6.38;4.07;;;;;;;13.08;100.00;99592.31;6100580;19;20462;-72
2023/09/24 09:02:47;;;;;;;6.65;4.00;;;;;;;13.21;100.00;99596.53;6102031;19;21241;-72
2023/09/24 09:04:48;;;;;;;4.85;4.03;;;;;;;13.28;100.00;99595.88;6099218;19;20019;-72
2023/09/24 09:06:49;;;;;;;6.25;4.68;;;;;;;13.36;100.00;99596.81;6100761;19;20018;-72
2023/09/24 09:08:50;;;;;;;9.35;4.28;;;;;;;13.44;100.00;99604.91;6101193;19;20223;-72
2023/09/24 09:10:51;;;;;;;4.43;3.43;;;;;;;13.54;100.00;99597.91;6098251;19;20291;-72
2023/09/24 09:13:22;;;;;;;3.97;3.45;;;;;;;13.61;100.00;99594.47;6100211;19;20095;-72
2023/09/24 09:15:22;;;;;;;5.35;3.28;;;;;;;13.66;100.00;99602.50;6101248;19;20379;-72
2023/09/24 09:17:23;;;;;;;6.15;3.80;;;;;;;13.63;100.00;99600.44;6100064;19;20489;-72
2023/09/24 09:19:25;;;;;;;5.03;3.90;;;;;;;13.58;100.00;99603.56;6098395;19;20763;-72
2023/09/24 09:21:25;;;;;;;3.85;3.05;;;;;;;13.52;100.00;99593.91;6100707;19;20010;-72
2023/09/24 09:23:33;;;;;;;6.82;3.30;;;;;;;13.56;100.00;99590.00;6100043;19;20485;-72
2023/09/24 09:25:33;;;;;;;3.50;2.88;;;;;;;13.60;100.00;99596.44;6099888;19;20035;-72
2023/09/24 09:27:39;;;;;;;3.42;2.70;;;;;;;13.66;100.00;99594.97;6100379;19;20470;-72